Time;durP1;ratioP1;P1;durP2;ratioP2;P2;SDS_P1;SDS_P2;PMS_P1;PMS_P2;Temp;Humidity;BMP_temperature;BMP_pressure;BME280_temperature;BME280_humidity;BME280_pressure;Samples;Min_cycle;Max_cycle;Signal;HPM_P1;HPM_P2
2021/06/23 00:00:45;0.00;0.00;0.62;0.00;0.00;0.62;;;;;26.80;60.50;;;;;;2259469;61;1427;-68
2021/06/23 00:03:11;0.00;0.00;0.62;0.00;0.00;0.62;;;;;26.80;60.50;;;;;;2259325;61;997;-77
2021/06/23 00:05:36;0.00;0.00;0.62;0.00;0.00;0.62;;;;;26.80;60.50;;;;;;2259012;61;976;-68
2021/06/23 00:08:02;0.00;0.00;0.62;0.00;0.00;0.62;;;;;26.80;60.60;;;;;;2255332;61;992;-75
2021/06/23 00:10:28;0.00;0.00;0.62;0.00;0.00;0.62;;;;;26.80;60.50;;;;;;2259229;61;2017;-68
2021/06/23 00:12:54;0.00;0.00;0.62;0.00;0.00;0.62;;;;;26.80;60.60;;;;;;2259241;61;842;-69
2021/06/23 00:15:20;0.00;0.00;0.62;0.00;0.00;0.62;;;;;26.80;60.60;;;;;;2259339;61;922;-71
2021/06/23 00:17:45;0.00;0.00;0.62;0.00;0.00;0.62;;;;;26.80;60.60;;;;;;2255309;61;985;-69
2021/06/23 00:20:11;0.00;0.00;0.62;0.00;0.00;0.62;;;;;26.80;60.60;;;;;;2259403;61;1024;-68
2021/06/23 00:22:37;0.00;0.00;0.62;0.00;0.00;0.62;;;;;26.80;60.60;;;;;;2255595;61;915;-67
2021/06/23 00:25:03;0.00;0.00;0.62;0.00;0.00;0.62;;;;;26.80;60.60;;;;;;2258959;61;1395;-71
2021/06/23 00:27:29;47056.00;0.16;82.09;0.00;0.00;0.62;;;;;26.80;60.60;;;;;;2259202;61;917;-75
2021/06/23 00:29:54;0.00;0.00;0.62;0.00;0.00;0.62;;;;;26.80;60.60;;;;;;2259091;61;2010;-80
2021/06/23 00:32:20;0.00;0.00;0.62;0.00;0.00;0.62;;;;;26.80;60.60;;;;;;2259095;61;907;-73
2021/06/23 00:34:46;0.00;0.00;0.62;0.00;0.00;0.62;;;;;26.80;60.60;;;;;;2255163;61;1041;-71
2021/06/23 00:37:12;0.00;0.00;0.62;0.00;0.00;0.62;;;;;26.80;60.60;;;;;;2259249;61;976;-70
2021/06/23 00:39:37;0.00;0.00;0.62;0.00;0.00;0.62;;;;;26.80;60.60;;;;;;2259176;61;922;-72
2021/06/23 00:42:04;0.00;0.00;0.62;0.00;0.00;0.62;;;;;26.80;60.60;;;;;;2259288;61;1045;-74
2021/06/23 00:44:30;0.00;0.00;0.62;0.00;0.00;0.62;;;;;26.80;60.60;;;;;;2255104;61;1295;-69
2021/06/23 00:46:55;0.00;0.00;0.62;0.00;0.00;0.62;;;;;26.80;60.60;;;;;;2259151;61;1090;-69
2021/06/23 00:49:21;0.00;0.00;0.62;0.00;0.00;0.62;;;;;26.80;60.60;;;;;;2255166;61;2012;-72
2021/06/23 00:51:46;0.00;0.00;0.62;0.00;0.00;0.62;;;;;26.80;60.60;;;;;;2259479;61;808;-70
2021/06/23 00:54:13;292850.00;0.98;505.63;209416.00;0.70;362.13;;;;;26.80;60.60;;;;;;2252623;61;935;-71
2021/06/23 00:56:39;0.00;0.00;0.62;0.00;0.00;0.62;;;;;26.80;60.60;;;;;;2256294;61;985;-70
2021/06/23 00:59:06;0.00;0.00;0.62;0.00;0.00;0.62;;;;;26.80;60.60;;;;;;2255994;61;1106;-73
2021/06/23 01:01:32;0.00;0.00;0.62;0.00;0.00;0.62;;;;;26.80;60.60;;;;;;2252528;61;974;-69
2021/06/23 01:03:58;0.00;0.00;0.62;0.00;0.00;0.62;;;;;26.80;60.60;;;;;;2252857;61;954;-69
2021/06/23 01:06:24;2664.00;0.01;5.24;0.00;0.00;0.62;;;;;26.80;60.60;;;;;;2255461;61;933;-69
2021/06/23 01:08:50;34832.00;0.12;60.95;0.00;0.00;0.62;;;;;26.80;60.60;;;;;;2259563;61;879;-72
2021/06/23 01:11:15;0.00;0.00;0.62;0.00;0.00;0.62;;;;;26.80;60.60;;;;;;2259640;61;2015;-71
2021/06/23 01:14:03;0.00;0.00;0.62;0.00;0.00;0.62;;;;;26.80;60.60;;;;;;2255933;61;1043;-69
2021/06/23 01:16:30;0.00;0.00;0.62;0.00;0.00;0.62;;;;;26.80;60.60;;;;;;2259831;61;935;-69
2021/06/23 01:18:59;0.00;0.00;0.62;0.00;0.00;0.62;;;;;26.80;60.70;;;;;;2260118;61;1072;-69
2021/06/23 01:21:28;0.00;0.00;0.62;0.00;0.00;0.62;;;;;26.80;60.60;;;;;;2259624;61;867;-69
2021/06/23 01:23:54;0.00;0.00;0.62;0.00;0.00;0.62;;;;;26.80;60.60;;;;;;2255888;61;975;-68
2021/06/23 01:26:20;0.00;0.00;0.62;0.00;0.00;0.62;;;;;26.80;60.60;;;;;;2255856;61;977;-70
2021/06/23 01:28:45;0.00;0.00;0.62;0.00;0.00;0.62;;;;;26.80;60.60;;;;;;2259743;61;982;-69
2021/06/23 01:31:11;0.00;0.00;0.62;0.00;0.00;0.62;;;;;26.80;60.60;;;;;;2259640;61;1958;-68
2021/06/23 01:33:37;0.00;0.00;0.62;0.00;0.00;0.62;;;;;26.80;60.70;;;;;;2252497;61;946;-69
2021/06/23 01:36:03;0.00;0.00;0.62;0.00;0.00;0.62;;;;;26.80;60.60;;;;;;2259842;61;1011;-70
2021/06/23 01:38:28;0.00;0.00;0.62;0.00;0.00;0.62;;;;;26.80;60.70;;;;;;2259616;61;934;-69
2021/06/23 01:40:54;0.00;0.00;0.62;0.00;0.00;0.62;;;;;26.80;60.70;;;;;;2259550;61;817;-72
2021/06/23 01:43:20;0.00;0.00;0.62;0.00;0.00;0.62;;;;;26.80;60.60;;;;;;2259945;61;907;-69
2021/06/23 01:45:46;0.00;0.00;0.62;0.00;0.00;0.62;;;;;26.80;60.70;;;;;;2255860;61;876;-70
2021/06/23 01:48:15;0.00;0.00;0.62;0.00;0.00;0.62;;;;;26.80;60.70;;;;;;2259408;61;1187;-75
2021/06/23 01:50:41;0.00;0.00;0.62;0.00;0.00;0.62;;;;;26.80;60.60;;;;;;2255641;61;2016;-73
2021/06/23 01:53:06;0.00;0.00;0.62;0.00;0.00;0.62;;;;;26.80;60.70;;;;;;2259602;61;906;-70
2021/06/23 01:55:32;0.00;0.00;0.62;0.00;0.00;0.62;;;;;26.80;60.70;;;;;;2259568;61;1006;-80
2021/06/23 01:58:08;0.00;0.00;0.62;0.00;0.00;0.62;;;;;26.80;60.70;;;;;;2259757;61;1176;-68
2021/06/23 02:00:45;0.00;0.00;0.62;0.00;0.00;0.62;;;;;26.80;60.70;;;;;;2259364;61;974;-68
2021/06/23 02:03:28;0.00;0.00;0.62;0.00;0.00;0.62;;;;;26.80;60.70;;;;;;2260018;61;817;-68
2021/06/23 02:06:03;0.00;0.00;0.62;0.00;0.00;0.62;;;;;26.80;60.70;;;;;;2255185;61;826;-68
2021/06/23 02:08:46;0.00;0.00;0.62;0.00;0.00;0.62;;;;;26.80;60.70;;;;;;2259703;61;1004;-77
2021/06/23 02:11:34;77200.00;0.26;134.20;0.00;0.00;0.62;;;;;26.80;60.70;;;;;;2259819;61;2023;-70
2021/06/23 02:14:24;46385.00;0.15;80.93;0.00;0.00;0.62;;;;;26.80;60.70;;;;;;2255984;61;903;-74
2021/06/23 02:16:49;0.00;0.00;0.62;0.00;0.00;0.62;;;;;26.70;60.70;;;;;;2259680;61;936;-74
2021/06/23 02:19:15;0.00;0.00;0.62;0.00;0.00;0.62;;;;;26.80;60.70;;;;;;2259801;61;1346;-70
2021/06/23 02:21:41;0.00;0.00;0.62;0.00;0.00;0.62;;;;;26.70;60.70;;;;;;2255769;61;939;-71
2021/06/23 02:24:07;0.00;0.00;0.62;0.00;0.00;0.62;;;;;26.70;60.70;;;;;;2259341;61;1064;-68
2021/06/23 02:26:33;0.00;0.00;0.62;0.00;0.00;0.62;;;;;26.70;60.70;;;;;;2252503;61;1206;-72
2021/06/23 02:28:58;0.00;0.00;0.62;0.00;0.00;0.62;;;;;26.70;60.70;;;;;;2252563;61;1066;-68
2021/06/23 02:31:26;0.00;0.00;0.62;0.00;0.00;0.62;;;;;26.70;60.70;;;;;;2252303;61;2031;-72
2021/06/23 02:33:53;0.00;0.00;0.62;0.00;0.00;0.62;;;;;26.70;60.70;;;;;;2259405;61;841;-71
2021/06/23 02:36:19;0.00;0.00;0.62;0.00;0.00;0.62;;;;;26.70;60.70;;;;;;2255765;61;1273;-71
2021/06/23 02:38:44;0.00;0.00;0.62;0.00;0.00;0.62;;;;;26.70;60.70;;;;;;2255707;61;1133;-69
2021/06/23 02:41:10;0.00;0.00;0.62;0.00;0.00;0.62;;;;;26.70;60.70;;;;;;2255791;61;1152;-68
2021/06/23 02:43:36;0.00;0.00;0.62;0.00;0.00;0.62;;;;;26.70;60.70;;;;;;2259479;61;1020;-68
2021/06/23 02:46:01;0.00;0.00;0.62;0.00;0.00;0.62;;;;;26.70;60.70;;;;;;2252547;61;926;-74
2021/06/23 02:48:27;0.00;0.00;0.62;0.00;0.00;0.62;;;;;26.70;60.70;;;;;;2259418;61;966;-71
2021/06/23 02:51:03;43675.00;0.15;76.25;0.00;0.00;0.62;;;;;26.70;60.70;;;;;;2259406;61;2009;-72
2021/06/23 02:53:29;0.00;0.00;0.62;0.00;0.00;0.62;;;;;26.70;60.70;;;;;;2255491;61;1286;-70
2021/06/23 02:55:55;0.00;0.00;0.62;0.00;0.00;0.62;;;;;26.70;60.70;;;;;;2255700;61;1255;-72
2021/06/23 02:58:20;0.00;0.00;0.62;0.00;0.00;0.62;;;;;26.70;60.70;;;;;;2255502;61;1231;-75
2021/06/23 03:00:46;34541.00;0.12;60.44;0.00;0.00;0.62;;;;;26.70;60.70;;;;;;2252331;61;1028;-72
2021/06/23 03:03:11;0.00;0.00;0.62;0.00;0.00;0.62;;;;;26.70;60.70;;;;;;2252199;61;992;-70
2021/06/23 03:05:37;0.00;0.00;0.62;0.00;0.00;0.62;;;;;26.70;60.70;;;;;;2259190;61;1558;-67
2021/06/23 03:08:03;0.00;0.00;0.62;0.00;0.00;0.62;;;;;26.70;60.70;;;;;;2259285;61;1135;-72
2021/06/23 03:10:28;0.00;0.00;0.62;0.00;0.00;0.62;;;;;26.70;60.70;;;;;;2259258;61;1943;-68
2021/06/23 03:12:54;0.00;0.00;0.62;0.00;0.00;0.62;;;;;26.70;60.70;;;;;;2259194;61;987;-70
2021/06/23 03:15:20;0.00;0.00;0.62;0.00;0.00;0.62;;;;;26.70;60.70;;;;;;2259529;61;976;-71
2021/06/23 03:17:45;0.00;0.00;0.62;0.00;0.00;0.62;;;;;26.70;60.70;;;;;;2259352;61;1080;-69
2021/06/23 03:20:11;0.00;0.00;0.62;0.00;0.00;0.62;;;;;26.70;60.70;;;;;;2259475;61;907;-74
2021/06/23 03:22:37;0.00;0.00;0.62;0.00;0.00;0.62;;;;;26.70;60.70;;;;;;2259246;61;972;-68
2021/06/23 03:25:03;0.00;0.00;0.62;0.00;0.00;0.62;;;;;26.70;60.70;;;;;;2259141;61;887;-70
2021/06/23 03:27:29;0.00;0.00;0.62;0.00;0.00;0.62;;;;;26.70;60.70;;;;;;2259384;61;1001;-67
2021/06/23 03:29:54;29485.00;0.10;51.69;0.00;0.00;0.62;;;;;26.70;60.70;;;;;;2259108;61;2024;-67
2021/06/23 03:32:20;0.00;0.00;0.62;0.00;0.00;0.62;;;;;26.70;60.70;;;;;;2259309;61;918;-68
2021/06/23 03:34:45;0.00;0.00;0.62;0.00;0.00;0.62;;;;;26.70;60.70;;;;;;2259189;61;1055;-67
2021/06/23 03:37:12;0.00;0.00;0.62;0.00;0.00;0.62;;;;;26.70;60.70;;;;;;2259252;61;1327;-68
2021/06/23 03:39:37;0.00;0.00;0.62;0.00;0.00;0.62;;;;;26.70;60.70;;;;;;2259099;61;937;-79
2021/06/23 03:42:03;0.00;0.00;0.62;0.00;0.00;0.62;;;;;26.70;60.70;;;;;;2259190;61;872;-71
2021/06/23 03:44:29;0.00;0.00;0.62;0.00;0.00;0.62;;;;;26.70;60.70;;;;;;2259337;61;932;-74
2021/06/23 03:46:55;0.00;0.00;0.62;0.00;0.00;0.62;;;;;26.70;60.70;;;;;;2259211;61;926;-71
2021/06/23 03:49:21;0.00;0.00;0.62;0.00;0.00;0.62;;;;;26.70;60.70;;;;;;2255332;61;1487;-69
2021/06/23 03:51:47;0.00;0.00;0.62;0.00;0.00;0.62;;;;;26.70;60.70;;;;;;2259098;61;993;-70
2021/06/23 03:54:13;0.00;0.00;0.62;0.00;0.00;0.62;;;;;26.70;60.60;;;;;;2259075;61;960;-71
2021/06/23 03:56:38;0.00;0.00;0.62;0.00;0.00;0.62;;;;;26.70;60.70;;;;;;2259116;61;1016;-68
2021/06/23 03:59:04;0.00;0.00;0.62;0.00;0.00;0.62;;;;;26.70;60.70;;;;;;2259268;61;936;-69
2021/06/23 04:01:29;0.00;0.00;0.62;0.00;0.00;0.62;;;;;26.70;60.70;;;;;;2259137;61;970;-71
2021/06/23 04:03:55;0.00;0.00;0.62;0.00;0.00;0.62;;;;;26.70;60.70;;;;;;2259220;61;1003;-68
2021/06/23 04:06:21;24540.00;0.08;43.13;0.00;0.00;0.62;;;;;26.70;60.70;;;;;;2259270;61;995;-70
2021/06/23 04:08:46;289767.00;0.97;500.33;67710.00;0.23;117.80;;;;;26.60;60.70;;;;;;2259384;61;897;-69
2021/06/23 04:11:12;0.00;0.00;0.62;0.00;0.00;0.62;;;;;26.70;60.70;;;;;;2259069;61;1945;-67
2021/06/23 04:13:37;0.00;0.00;0.62;0.00;0.00;0.62;;;;;26.60;60.70;;;;;;2259353;61;938;-77
2021/06/23 04:16:03;30079.00;0.10;52.72;0.00;0.00;0.62;;;;;26.60;60.70;;;;;;2259039;61;972;-72
2021/06/23 04:18:29;0.00;0.00;0.62;0.00;0.00;0.62;;;;;26.70;60.70;;;;;;2258924;61;986;-75
2021/06/23 04:20:55;0.00;0.00;0.62;0.00;0.00;0.62;;;;;26.60;60.70;;;;;;2259185;61;925;-67
2021/06/23 04:23:20;0.00;0.00;0.62;0.00;0.00;0.62;;;;;26.60;60.70;;;;;;2258979;61;895;-74
2021/06/23 04:25:46;0.00;0.00;0.62;0.00;0.00;0.62;;;;;26.60;60.70;;;;;;2259439;61;993;-69
2021/06/23 04:28:13;0.00;0.00;0.62;0.00;0.00;0.62;;;;;26.60;60.70;;;;;;2259960;61;914;-67
2021/06/23 04:30:38;13893.00;0.05;24.69;0.00;0.00;0.62;;;;;26.60;60.70;;;;;;2259716;61;2012;-67
2021/06/23 04:33:04;0.00;0.00;0.62;0.00;0.00;0.62;;;;;26.60;60.70;;;;;;2259701;61;981;-76
2021/06/23 04:35:30;0.00;0.00;0.62;0.00;0.00;0.62;;;;;26.60;60.70;;;;;;2259690;61;884;-74
2021/06/23 04:37:55;0.00;0.00;0.62;0.00;0.00;0.62;;;;;26.60;60.70;;;;;;2259965;61;915;-72
2021/06/23 04:40:21;38901.00;0.13;67.99;0.00;0.00;0.62;;;;;26.60;60.70;;;;;;2259497;61;1258;-70
2021/06/23 04:42:46;0.00;0.00;0.62;0.00;0.00;0.62;;;;;26.60;60.70;;;;;;2259707;61;919;-72
2021/06/23 04:45:13;0.00;0.00;0.62;0.00;0.00;0.62;;;;;26.60;60.70;;;;;;2259639;61;977;-75
2021/06/23 04:47:39;0.00;0.00;0.62;0.00;0.00;0.62;;;;;26.60;60.60;;;;;;2255992;61;1385;-68
2021/06/23 04:50:05;21333.00;0.07;37.58;0.00;0.00;0.62;;;;;26.60;60.70;;;;;;2259591;61;1927;-75
2021/06/23 04:52:31;5913.00;0.02;10.87;0.00;0.00;0.62;;;;;26.60;60.60;;;;;;2259845;61;1183;-70
2021/06/23 04:54:56;0.00;0.00;0.62;0.00;0.00;0.62;;;;;26.60;60.70;;;;;;2255707;61;1169;-71
2021/06/23 04:57:22;0.00;0.00;0.62;0.00;0.00;0.62;;;;;26.60;60.70;;;;;;2259776;61;1017;-75
2021/06/23 04:59:48;0.00;0.00;0.62;0.00;0.00;0.62;;;;;26.60;60.60;;;;;;2259775;61;1124;-75
2021/06/23 05:02:14;0.00;0.00;0.62;0.00;0.00;0.62;;;;;26.60;60.70;;;;;;2255996;61;908;-69
2021/06/23 05:04:40;0.00;0.00;0.62;0.00;0.00;0.62;;;;;26.60;60.60;;;;;;2259746;61;989;-69
2021/06/23 05:07:07;12721.00;0.04;22.66;0.00;0.00;0.62;;;;;26.60;60.60;;;;;;2259803;61;1026;-71
2021/06/23 05:09:33;0.00;0.00;0.62;0.00;0.00;0.62;;;;;26.60;60.60;;;;;;2256127;61;2016;-72
2021/06/23 05:11:59;9252.00;0.03;16.65;0.00;0.00;0.62;;;;;26.60;60.60;;;;;;2259634;61;1088;-71
2021/06/23 05:14:25;0.00;0.00;0.62;0.00;0.00;0.62;;;;;26.60;60.70;;;;;;2255783;61;933;-67
2021/06/23 05:16:51;0.00;0.00;0.62;0.00;0.00;0.62;;;;;26.60;60.60;;;;;;2259629;61;1033;-71
2021/06/23 05:19:20;0.00;0.00;0.62;0.00;0.00;0.62;;;;;26.60;60.60;;;;;;2259808;61;1031;-71
2021/06/23 05:21:46;74565.00;0.25;129.65;0.00;0.00;0.62;;;;;26.60;60.60;;;;;;2255743;61;1085;-68
2021/06/23 05:24:11;0.00;0.00;0.62;0.00;0.00;0.62;;;;;26.60;60.70;;;;;;2259557;61;972;-70
2021/06/23 05:26:37;0.00;0.00;0.62;0.00;0.00;0.62;;;;;26.60;60.60;;;;;;2259658;61;978;-68
2021/06/23 05:29:03;0.00;0.00;0.62;0.00;0.00;0.62;;;;;26.60;60.70;;;;;;2259540;61;926;-71
2021/06/23 05:31:29;0.00;0.00;0.62;0.00;0.00;0.62;;;;;26.60;60.60;;;;;;2255653;61;1957;-73
2021/06/23 05:33:55;0.00;0.00;0.62;0.00;0.00;0.62;;;;;26.60;60.60;;;;;;2259579;61;923;-67
2021/06/23 05:36:20;0.00;0.00;0.62;0.00;0.00;0.62;;;;;26.70;60.60;;;;;;2259555;61;987;-70
2021/06/23 05:38:46;0.00;0.00;0.62;0.00;0.00;0.62;;;;;26.60;60.60;;;;;;2255775;61;1426;-70
2021/06/23 05:41:12;0.00;0.00;0.62;0.00;0.00;0.62;;;;;26.60;60.60;;;;;;2259335;61;1070;-67
2021/06/23 05:43:37;99345.00;0.33;172.44;0.00;0.00;0.62;;;;;26.60;60.60;;;;;;2259707;61;891;-75
2021/06/23 05:46:03;0.00;0.00;0.62;0.00;0.00;0.62;;;;;26.60;60.60;;;;;;2259442;61;968;-67
2021/06/23 05:48:29;33241.00;0.11;58.19;0.00;0.00;0.62;;;;;26.60;60.60;;;;;;2259521;61;1395;-67
2021/06/23 05:50:54;43680.00;0.15;76.25;0.00;0.00;0.62;;;;;26.60;60.60;;;;;;2259640;61;2012;-73
2021/06/23 05:53:20;0.00;0.00;0.62;0.00;0.00;0.62;;;;;26.70;60.60;;;;;;2259415;61;970;-70
2021/06/23 05:55:45;31120.00;0.10;54.52;0.00;0.00;0.62;;;;;26.70;60.60;;;;;;2259611;61;998;-72
2021/06/23 05:58:11;0.00;0.00;0.62;0.00;0.00;0.62;;;;;26.70;60.60;;;;;;2259325;61;987;-72
2021/06/23 06:00:37;30996.00;0.10;54.31;0.00;0.00;0.62;;;;;26.70;60.60;;;;;;2259237;61;955;-71
2021/06/23 06:03:06;0.00;0.00;0.62;0.00;0.00;0.62;;;;;26.70;60.60;;;;;;2255873;61;883;-71
2021/06/23 06:05:31;18876.00;0.06;33.32;0.00;0.00;0.62;;;;;26.60;60.60;;;;;;2255824;61;854;-71
2021/06/23 06:07:57;0.00;0.00;0.62;0.00;0.00;0.62;;;;;26.70;60.60;;;;;;2259496;61;959;-67
2021/06/23 06:10:23;0.00;0.00;0.62;0.00;0.00;0.62;;;;;26.70;60.60;;;;;;2259283;61;1944;-70
2021/06/23 06:12:48;0.00;0.00;0.62;0.00;0.00;0.62;;;;;26.60;60.60;;;;;;2259294;61;1006;-75
2021/06/23 06:15:14;0.00;0.00;0.62;0.00;0.00;0.62;;;;;26.70;60.60;;;;;;2259472;61;956;-68
2021/06/23 06:17:40;0.00;0.00;0.62;0.00;0.00;0.62;;;;;26.70;60.60;;;;;;2259344;61;1078;-68
2021/06/23 06:20:06;29780.00;0.10;52.20;0.00;0.00;0.62;;;;;26.70;60.70;;;;;;2255938;61;827;-70
2021/06/23 06:22:32;74375.00;0.25;129.32;0.00;0.00;0.62;;;;;26.70;60.60;;;;;;2255870;61;1007;-70
2021/06/23 06:24:58;0.00;0.00;0.62;0.00;0.00;0.62;;;;;26.70;60.60;;;;;;2259380;61;890;-74
2021/06/23 06:27:24;0.00;0.00;0.62;0.00;0.00;0.62;;;;;26.70;60.60;;;;;;2259607;61;992;-70
2021/06/23 06:29:49;0.00;0.00;0.62;0.00;0.00;0.62;;;;;26.70;60.60;;;;;;2259545;61;2020;-68
2021/06/23 06:32:15;10234.00;0.03;18.35;0.00;0.00;0.62;;;;;26.70;60.50;;;;;;2259615;61;912;-72
2021/06/23 06:34:41;4286.00;0.01;8.05;0.00;0.00;0.62;;;;;26.70;60.60;;;;;;2259594;61;974;-69
2021/06/23 06:37:06;0.00;0.00;0.62;0.00;0.00;0.62;;;;;26.70;60.50;;;;;;2259645;61;991;-70
2021/06/23 06:39:32;0.00;0.00;0.62;0.00;0.00;0.62;;;;;26.70;60.60;;;;;;2259427;61;941;-69
2021/06/23 06:41:57;0.00;0.00;0.62;0.00;0.00;0.62;;;;;26.70;60.50;;;;;;2259367;61;934;-70
2021/06/23 06:44:27;0.00;0.00;0.62;0.00;0.00;0.62;;;;;26.70;60.50;;;;;;2259322;61;1021;-71
2021/06/23 06:46:52;0.00;0.00;0.62;0.00;0.00;0.62;;;;;26.70;60.50;;;;;;2259606;61;1096;-68
2021/06/23 06:49:18;0.00;0.00;0.62;0.00;0.00;0.62;;;;;26.70;60.50;;;;;;2259071;61;1133;-69
2021/06/23 06:51:43;0.00;0.00;0.62;0.00;0.00;0.62;;;;;26.70;60.50;;;;;;2259238;61;1975;-73
2021/06/23 06:54:09;0.00;0.00;0.62;0.00;0.00;0.62;;;;;26.70;60.30;;;;;;2259563;61;1262;-68
2021/06/23 06:56:35;0.00;0.00;0.62;0.00;0.00;0.62;;;;;26.70;60.50;;;;;;2259463;61;987;-76
2021/06/23 06:59:00;0.00;0.00;0.62;0.00;0.00;0.62;;;;;26.70;60.50;;;;;;2259589;61;840;-74
2021/06/23 07:01:26;5438.00;0.02;10.04;0.00;0.00;0.62;;;;;26.70;60.50;;;;;;2259617;61;912;-73
2021/06/23 07:03:51;0.00;0.00;0.62;0.00;0.00;0.62;;;;;26.70;60.50;;;;;;2259186;61;911;-70
2021/06/23 07:06:17;0.00;0.00;0.62;0.00;0.00;0.62;;;;;26.70;60.50;;;;;;2259780;61;907;-68
2021/06/23 07:08:42;18715.00;0.06;33.04;0.00;0.00;0.62;;;;;26.70;60.50;;;;;;2259472;61;938;-70
2021/06/23 07:11:08;0.00;0.00;0.62;0.00;0.00;0.62;;;;;26.70;60.50;;;;;;2259185;61;2012;-68
2021/06/23 07:13:34;27355.00;0.09;48.00;0.00;0.00;0.62;;;;;26.70;60.50;;;;;;2258613;61;1003;-70
2021/06/23 07:15:59;0.00;0.00;0.62;0.00;0.00;0.62;;;;;26.70;60.50;;;;;;2259214;61;914;-68
2021/06/23 07:18:25;91645.00;0.31;159.15;0.00;0.00;0.62;;;;;26.70;60.60;;;;;;2259523;61;986;-72
2021/06/23 07:20:50;49309.00;0.16;85.99;0.00;0.00;0.62;;;;;26.70;60.50;;;;;;2259361;61;1010;-72
2021/06/23 07:23:16;0.00;0.00;0.62;0.00;0.00;0.62;;;;;26.70;60.60;;;;;;2259350;61;1062;-70
2021/06/23 07:25:42;0.00;0.00;0.62;0.00;0.00;0.62;;;;;26.70;60.50;;;;;;2259615;61;993;-72
2021/06/23 07:28:11;0.00;0.00;0.62;0.00;0.00;0.62;;;;;26.70;60.50;;;;;;2259315;61;913;-70
2021/06/23 07:30:36;125140.00;0.42;216.95;0.00;0.00;0.62;;;;;26.70;60.50;;;;;;2259421;61;2021;-69
2021/06/23 07:33:06;54409.00;0.18;94.81;0.00;0.00;0.62;;;;;26.70;60.60;;;;;;2258999;61;928;-70
2021/06/23 07:38:16;77170.00;0.26;134.15;0.00;0.00;0.62;;;;;26.70;60.50;;;;;;2259237;61;749;-74
2021/06/23 07:43:08;21123.00;0.07;37.21;0.00;0.00;0.62;;;;;26.70;60.50;;;;;;2259177;61;1042;-75
2021/06/23 07:45:36;0.00;0.00;0.62;0.00;0.00;0.62;;;;;26.80;60.50;;;;;;2259168;61;875;-70
2021/06/23 07:48:02;93204.00;0.31;161.84;0.00;0.00;0.62;;;;;26.70;60.50;;;;;;2259184;61;954;-71
2021/06/23 07:50:34;0.00;0.00;0.62;0.00;0.00;0.62;;;;;26.80;60.50;;;;;;2259217;61;2007;-68
2021/06/23 07:53:15;0.00;0.00;0.62;0.00;0.00;0.62;;;;;26.80;60.50;;;;;;2259546;61;915;-67
2021/06/23 07:55:44;0.00;0.00;0.62;0.00;0.00;0.62;;;;;26.80;60.50;;;;;;2259098;61;922;-68
2021/06/23 08:09:31;63994.00;0.21;111.38;0.00;0.00;0.62;;;;;26.70;60.60;;;;;;2259233;61;789;-71
2021/06/23 08:12:15;0.00;0.00;0.62;0.00;0.00;0.62;;;;;26.70;60.60;;;;;;2259242;61;2012;-68
2021/06/23 08:14:40;0.00;0.00;0.62;0.00;0.00;0.62;;;;;26.70;60.60;;;;;;2259022;61;947;-73
2021/06/23 08:17:06;0.00;0.00;0.62;0.00;0.00;0.62;;;;;26.70;60.60;;;;;;2259031;61;972;-70
2021/06/23 08:19:32;0.00;0.00;0.62;0.00;0.00;0.62;;;;;26.70;60.60;;;;;;2255395;61;814;-74
2021/06/23 08:21:57;0.00;0.00;0.62;0.00;0.00;0.62;;;;;26.70;60.60;;;;;;2259318;61;1005;-68
2021/06/23 08:24:23;0.00;0.00;0.62;0.00;0.00;0.62;;;;;26.70;60.60;;;;;;2259499;61;967;-68
2021/06/23 08:26:49;0.00;0.00;0.62;0.00;0.00;0.62;;;;;26.70;60.60;;;;;;2259139;61;904;-71
2021/06/23 08:29:14;0.00;0.00;0.62;0.00;0.00;0.62;;;;;26.70;60.60;;;;;;2259172;61;879;-69
2021/06/23 08:31:40;0.00;0.00;0.62;0.00;0.00;0.62;;;;;26.70;60.60;;;;;;2255554;61;2026;-68
2021/06/23 08:34:05;0.00;0.00;0.62;0.00;0.00;0.62;;;;;26.70;60.60;;;;;;2259026;61;938;-75
2021/06/23 08:36:31;0.00;0.00;0.62;0.00;0.00;0.62;;;;;26.70;60.60;;;;;;2259019;61;1124;-72
2021/06/23 08:38:57;39857.00;0.13;69.64;0.00;0.00;0.62;;;;;26.70;60.60;;;;;;2255480;61;977;-69
2021/06/23 08:41:29;0.00;0.00;0.62;0.00;0.00;0.62;;;;;26.70;60.50;;;;;;2255255;61;894;-68
2021/06/23 08:43:56;11384.00;0.04;20.35;0.00;0.00;0.62;;;;;26.70;60.60;;;;;;2259145;61;926;-68
2021/06/23 08:46:21;0.00;0.00;0.62;0.00;0.00;0.62;;;;;26.70;60.50;;;;;;2259052;61;992;-70
2021/06/23 08:48:47;23694.00;0.08;41.67;0.00;0.00;0.62;;;;;26.70;60.50;;;;;;2259088;61;938;-71
2021/06/23 08:51:13;0.00;0.00;0.62;0.00;0.00;0.62;;;;;26.70;60.50;;;;;;2252136;61;2014;-70
2021/06/23 08:53:38;0.00;0.00;0.62;0.00;0.00;0.62;;;;;26.70;60.50;;;;;;2252016;61;884;-69
2021/06/23 08:56:05;0.00;0.00;0.62;0.00;0.00;0.62;;;;;26.70;60.50;;;;;;2259230;61;948;-68
2021/06/23 08:58:31;0.00;0.00;0.62;0.00;0.00;0.62;;;;;26.70;60.30;;;;;;2259265;61;974;-71
2021/06/23 09:00:57;0.00;0.00;0.62;0.00;0.00;0.62;;;;;26.70;60.50;;;;;;2259021;61;1248;-69
2021/06/23 09:03:23;0.00;0.00;0.62;0.00;0.00;0.62;;;;;26.70;60.30;;;;;;2259021;61;879;-74
2021/06/23 09:05:51;0.00;0.00;0.62;0.00;0.00;0.62;;;;;26.70;60.50;;;;;;2259209;61;1000;-71
2021/06/23 09:08:36;0.00;0.00;0.62;0.00;0.00;0.62;;;;;26.70;60.30;;;;;;2259182;61;827;-70
2021/06/23 09:11:16;10535.00;0.04;18.88;0.00;0.00;0.62;;;;;26.70;60.30;;;;;;2255448;61;2016;-69
2021/06/23 09:13:42;0.00;0.00;0.62;0.00;0.00;0.62;;;;;26.70;60.30;;;;;;2255795;61;959;-70
2021/06/23 09:16:07;0.00;0.00;0.62;0.00;0.00;0.62;;;;;26.70;60.30;;;;;;2255987;61;942;-69
2021/06/23 09:18:35;0.00;0.00;0.62;0.00;0.00;0.62;;;;;26.70;60.30;;;;;;2252646;61;1516;-71
2021/06/23 09:21:16;0.00;0.00;0.62;0.00;0.00;0.62;;;;;26.70;60.30;;;;;;2259512;61;981;-71
2021/06/23 09:23:48;0.00;0.00;0.62;0.00;0.00;0.62;;;;;26.70;60.30;;;;;;2256141;61;938;-68
2021/06/23 09:26:23;0.00;0.00;0.62;0.00;0.00;0.62;;;;;26.70;60.20;;;;;;2259650;61;879;-69
2021/06/23 09:29:08;0.00;0.00;0.62;0.00;0.00;0.62;;;;;26.70;60.20;;;;;;2259716;61;915;-75
2021/06/23 09:31:59;0.00;0.00;0.62;0.00;0.00;0.62;;;;;26.70;60.20;;;;;;2259774;61;2028;-68
2021/06/23 09:34:26;0.00;0.00;0.62;0.00;0.00;0.62;;;;;26.80;60.20;;;;;;2259973;61;882;-72
2021/06/23 09:36:51;0.00;0.00;0.62;0.00;0.00;0.62;;;;;26.70;60.20;;;;;;2259780;61;951;-70
2021/06/23 09:39:21;0.00;0.00;0.62;0.00;0.00;0.62;;;;;26.70;60.20;;;;;;2259758;61;925;-71
2021/06/23 09:41:47;0.00;0.00;0.62;0.00;0.00;0.62;;;;;26.70;60.10;;;;;;2259905;61;1026;-73
2021/06/23 09:44:13;55189.00;0.18;96.16;0.00;0.00;0.62;;;;;26.70;60.20;;;;;;2259682;61;935;-69
2021/06/23 09:46:46;0.00;0.00;0.62;0.00;0.00;0.62;;;;;26.80;60.10;;;;;;2255920;61;987;-70
2021/06/23 09:49:20;0.00;0.00;0.62;0.00;0.00;0.62;;;;;26.70;60.10;;;;;;2252721;61;862;-73
2021/06/23 09:51:49;0.00;0.00;0.62;0.00;0.00;0.62;;;;;26.80;60.10;;;;;;2259593;61;1963;-70
2021/06/23 09:54:19;0.00;0.00;0.62;0.00;0.00;0.62;;;;;26.80;60.10;;;;;;2259671;61;1008;-70
2021/06/23 09:56:46;5641.00;0.02;10.40;0.00;0.00;0.62;;;;;26.80;60.10;;;;;;2256282;61;923;-74
2021/06/23 09:59:24;0.00;0.00;0.62;0.00;0.00;0.62;;;;;26.80;60.10;;;;;;2255872;61;1009;-68
2021/06/23 10:01:50;31640.00;0.11;55.42;0.00;0.00;0.62;;;;;26.80;60.00;;;;;;2259643;61;913;-70
2021/06/23 10:04:15;0.00;0.00;0.62;0.00;0.00;0.62;;;;;26.80;60.00;;;;;;2255982;61;918;-71
2021/06/23 10:06:45;0.00;0.00;0.62;0.00;0.00;0.62;;;;;26.80;60.00;;;;;;2259879;61;993;-68
2021/06/23 10:09:16;0.00;0.00;0.62;0.00;0.00;0.62;;;;;26.80;60.00;;;;;;2259573;61;828;-68
2021/06/23 10:11:42;48375.00;0.16;84.38;0.00;0.00;0.62;;;;;26.80;60.00;;;;;;2259635;61;2206;-76
2021/06/23 10:14:08;26417.00;0.09;46.38;0.00;0.00;0.62;;;;;26.80;60.00;;;;;;2255833;61;939;-71
2021/06/23 10:16:34;22339.00;0.07;39.32;0.00;0.00;0.62;;;;;26.80;60.00;;;;;;2256159;61;1037;-69
2021/06/23 10:19:00;36545.00;0.12;63.91;0.00;0.00;0.62;;;;;26.80;59.80;;;;;;2273346;40;3725;-71
2021/06/23 10:21:25;0.00;0.00;0.62;0.00;0.00;0.62;;;;;26.80;59.70;;;;;;2263094;61;1090;-68
2021/06/23 10:23:51;2288.00;0.01;4.59;0.00;0.00;0.62;;;;;26.80;59.70;;;;;;2263041;61;833;-67
2021/06/23 10:26:17;29205.00;0.10;51.21;0.00;0.00;0.62;;;;;26.80;59.70;;;;;;2262964;61;978;-66
2021/06/23 10:28:46;0.00;0.00;0.62;0.00;0.00;0.62;;;;;26.80;60.00;;;;;;2259588;61;1298;-68
2021/06/23 10:31:11;52768.00;0.18;91.97;0.00;0.00;0.62;;;;;26.80;60.00;;;;;;2263287;61;2028;-68
2021/06/23 10:33:38;0.00;0.00;0.62;0.00;0.00;0.62;;;;;26.80;59.80;;;;;;2259869;61;888;-67
2021/06/23 10:36:04;0.00;0.00;0.62;0.00;0.00;0.62;;;;;26.80;59.80;;;;;;2263405;61;974;-66
2021/06/23 10:38:29;0.00;0.00;0.62;0.00;0.00;0.62;;;;;26.80;59.80;;;;;;2259518;61;1181;-69
2021/06/23 10:40:57;320293.00;1.07;552.80;147935.00;0.49;256.25;;;;;26.80;60.00;;;;;;2262840;61;835;-66
2021/06/23 10:43:23;0.00;0.00;0.62;0.00;0.00;0.62;;;;;26.80;60.10;;;;;;2262728;61;950;-68
2021/06/23 10:45:48;0.00;0.00;0.62;0.00;0.00;0.62;;;;;26.80;60.10;;;;;;2263014;61;884;-67
2021/06/23 10:48:14;0.00;0.00;0.62;0.00;0.00;0.62;;;;;26.80;60.50;;;;;;2263586;61;898;-65
2021/06/23 10:50:39;26403.00;0.09;46.36;0.00;0.00;0.62;;;;;26.80;60.50;;;;;;2263206;61;1943;-66